Time;durP1;ratioP1;P1;durP2;ratioP2;P2;SDS_P1;SDS_P2;PMS_P1;PMS_P2;Temp;Humidity;BMP_temperature;BMP_pressure;BME280_temperature;BME280_humidity;BME280_pressure;Samples;Min_cycle;Max_cycle;Signal;HPM_P1;HPM_P2
2022/09/29 00:00:37;;;;;;;3.75;2.10;;;9.60;70.20;;;;;;5087634;28;20028;-60
2022/09/29 00:03:03;;;;;;;3.42;2.10;;;9.60;70.10;;;;;;5095352;28;20024;-59
2022/09/29 00:05:29;;;;;;;5.28;2.05;;;9.50;70.10;;;;;;5106683;28;20049;-60
2022/09/29 00:07:55;;;;;;;4.38;2.08;;;9.50;70.10;;;;;;5096821;28;20080;-60
2022/09/29 00:10:22;;;;;;;3.30;1.80;;;9.50;70.10;;;;;;5075377;28;20135;-58
2022/09/29 00:12:48;;;;;;;2.78;1.98;;;9.50;70.20;;;;;;5105269;28;20024;-60
2022/09/29 00:15:14;;;;;;;2.55;1.73;;;9.50;70.30;;;;;;5087488;28;20108;-59
2022/09/29 00:17:39;;;;;;;2.92;1.70;;;9.40;70.10;;;;;;5093658;28;20408;-60
2022/09/29 00:20:06;;;;;;;4.85;1.83;;;9.40;70.10;;;;;;5088172;28;20056;-59
2022/09/29 00:22:31;;;;;;;2.30;1.73;;;9.40;70.10;;;;;;5092085;28;20099;-60
2022/09/29 00:24:57;;;;;;;2.20;1.60;;;9.40;70.00;;;;;;5107139;28;20028;-61
2022/09/29 00:27:23;;;;;;;4.18;1.80;;;9.40;70.00;;;;;;5090710;28;20026;-60
2022/09/29 00:29:49;;;;;;;6.32;1.83;;;9.40;70.00;;;;;;5105914;28;20115;-60
2022/09/29 00:32:14;;;;;;;2.80;1.38;;;9.30;70.00;;;;;;5085529;28;20401;-59
2022/09/29 00:34:40;;;;;;;2.47;1.65;;;9.30;70.00;;;;;;5085390;28;20028;-59
2022/09/29 00:37:06;;;;;;;2.08;1.60;;;9.30;69.90;;;;;;5103153;28;20028;-59
2022/09/29 00:39:32;;;;;;;2.85;1.73;;;9.30;70.00;;;;;;5085340;28;20462;-60
2022/09/29 00:41:57;;;;;;;3.03;1.73;;;9.30;70.10;;;;;;5104441;28;20034;-59
2022/09/29 00:44:54;;;;;;;3.42;1.70;;;9.20;70.20;;;;;;5086516;28;20036;-60
2022/09/29 00:47:22;;;;;;;4.72;2.42;;;9.20;70.80;;;;;;5101751;28;20023;-60
2022/09/29 00:50:16;;;;;;;4.55;2.30;;;9.20;70.60;;;;;;5099907;28;20047;-59
2022/09/29 00:52:57;;;;;;;19.60;8.20;;;9.20;70.80;;;;;;5086080;28;20040;-60
2022/09/29 00:55:28;;;;;;;25.45;10.93;;;9.20;71.00;;;;;;5106433;28;20039;-62
2022/09/29 00:58:07;;;;;;;21.02;9.75;;;9.20;70.80;;;;;;5073285;28;20036;-60
2022/09/29 01:00:33;;;;;;;12.60;6.55;;;9.20;71.10;;;;;;5066413;28;20040;-62
2022/09/29 01:03:06;;;;;;;9.18;4.47;;;9.20;70.80;;;;;;5094082;28;20021;-60
2022/09/29 01:05:36;;;;;;;6.18;3.17;;;9.20;70.90;;;;;;5065934;28;20021;-61
2022/09/29 01:08:12;;;;;;;4.75;2.88;;;9.20;71.00;;;;;;5096644;28;20035;-59
2022/09/29 01:10:43;;;;;;;5.68;3.00;;;9.30;71.30;;;;;;5078026;28;20052;-60
2022/09/29 01:13:10;;;;;;;3.97;2.63;;;9.20;71.00;;;;;;5081993;28;20089;-60
2022/09/29 01:15:35;;;;;;;6.93;2.90;;;9.20;71.00;;;;;;5099424;28;20025;-60
2022/09/29 01:18:02;;;;;;;5.35;2.90;;;9.30;71.10;;;;;;5084240;28;20043;-59
2022/09/29 01:20:34;;;;;;;7.00;2.60;;;9.20;71.20;;;;;;5105618;28;20049;-60
2022/09/29 01:23:24;;;;;;;3.83;2.70;;;9.30;71.50;;;;;;5064310;28;20168;-60
2022/09/29 01:26:24;;;;;;;7.53;2.63;;;9.30;72.00;;;;;;5105289;28;20024;-58
2022/09/29 01:29:16;;;;;;;4.97;2.40;;;9.30;72.00;;;;;;5085458;28;20033;-59
2022/09/29 01:32:30;;;;;;;7.28;3.30;;;9.30;71.50;;;;;;5066295;28;20163;-59
2022/09/29 01:35:29;;;;;;;5.90;2.80;;;9.40;71.80;;;;;;5066340;28;20456;-59
2022/09/29 01:38:20;;;;;;;5.28;2.97;;;9.40;71.80;;;;;;5072468;28;20155;-60
2022/09/29 01:41:07;;;;;;;7.53;2.92;;;9.40;71.50;;;;;;5065944;28;20040;-60
2022/09/29 01:43:46;;;;;;;4.65;3.10;;;9.40;71.80;;;;;;5076977;28;20036;-61
2022/09/29 01:46:48;;;;;;;6.55;3.22;;;9.50;71.70;;;;;;5065846;28;20021;-59
2022/09/29 01:49:16;;;;;;;6.15;3.60;;;9.40;71.90;;;;;;4993228;28;20040;-59
2022/09/29 01:52:05;;;;;;;6.13;2.95;;;9.50;71.50;;;;;;5085683;28;20060;-59
2022/09/29 01:55:03;;;;;;;4.88;2.63;;;9.50;72.10;;;;;;5083449;28;20025;-60
2022/09/29 01:57:50;;;;;;;4.07;2.65;;;9.50;72.10;;;;;;5051344;28;20489;-59
2022/09/29 02:00:18;;;;;;;6.55;3.65;;;9.50;72.00;;;;;;5085693;28;20054;-60
2022/09/29 02:02:47;;;;;;;12.63;3.22;;;9.50;71.60;;;;;;5096617;28;20042;-59
2022/09/29 02:05:20;;;;;;;4.85;3.30;;;9.50;71.80;;;;;;5105856;28;20562;-59
2022/09/29 02:07:47;;;;;;;7.97;3.20;;;9.60;71.90;;;;;;5068057;28;20033;-59
2022/09/29 02:10:28;;;;;;;5.72;2.95;;;9.60;71.80;;;;;;5104019;28;20051;-59
2022/09/29 02:12:56;;;;;;;6.20;2.53;;;9.60;72.20;;;;;;5070448;28;20068;-59
2022/09/29 02:15:27;;;;;;;8.02;2.50;;;9.60;71.70;;;;;;5085514;28;20039;-60
2022/09/29 02:17:56;;;;;;;7.13;2.88;;;9.60;71.80;;;;;;5075489;28;20036;-59
2022/09/29 02:20:23;;;;;;;4.18;2.75;;;9.70;71.90;;;;;;5101222;28;20036;-60
2022/09/29 02:22:49;;;;;;;6.78;3.33;;;9.70;72.00;;;;;;5097517;28;20024;-61
2022/09/29 02:25:17;;;;;;;6.97;3.05;;;9.70;72.00;;;;;;5105080;28;20089;-59
2022/09/29 02:27:44;;;;;;;6.50;3.65;;;9.70;72.10;;;;;;5087030;28;20110;-59
2022/09/29 02:30:11;;;;;;;4.43;2.78;;;9.80;72.20;;;;;;5104187;28;20028;-60
2022/09/29 02:32:36;;;;;;;5.43;3.08;;;9.80;72.10;;;;;;5087491;28;20070;-58
2022/09/29 02:35:06;;;;;;;6.15;2.78;;;9.80;72.00;;;;;;5105597;28;20020;-59
2022/09/29 02:37:40;;;;;;;4.00;2.40;;;9.80;72.80;;;;;;5086929;28;20028;-61
2022/09/29 02:40:15;;;;;;;;;;;9.80;72.10;;;;;;5069433;28;20025;-60
2022/09/29 02:42:58;;;;;;;10.23;2.45;;;9.80;72.60;;;;;;5089660;28;19908;-59
2022/09/29 02:45:32;;;;;;;7.82;3.13;;;9.80;72.30;;;;;;5109280;28;20063;-59
2022/09/29 02:48:32;;;;;;;4.23;2.93;;;9.80;72.20;;;;;;5101608;28;20039;-59
2022/09/29 02:51:24;;;;;;;8.35;3.28;;;9.80;72.60;;;;;;5104247;28;20286;-59
2022/09/29 02:54:07;;;;;;;6.35;3.50;;;9.80;72.50;;;;;;5089937;28;20032;-59
2022/09/29 02:56:48;;;;;;;7.63;3.50;;;9.80;72.10;;;;;;5078864;28;20013;-59
2022/09/29 02:59:24;;;;;;;5.63;2.70;;;9.80;72.20;;;;;;5082211;28;20412;-59
2022/09/29 03:01:54;;;;;;;5.05;3.28;;;9.80;72.20;;;;;;5068347;28;20029;-59
2022/09/29 03:04:23;;;;;;;4.47;3.00;;;9.80;72.20;;;;;;5084250;28;20055;-59
2022/09/29 03:06:50;;;;;;;5.38;3.83;;;9.80;72.10;;;;;;5108448;28;20032;-59
2022/09/29 03:09:16;;;;;;;6.40;4.05;;;9.80;72.10;;;;;;5087908;28;20116;-59
2022/09/29 03:11:41;;;;;;;5.72;3.72;;;9.80;72.20;;;;;;5107844;28;20040;-59
2022/09/29 03:14:07;;;;;;;6.55;3.72;;;9.80;72.20;;;;;;5086465;28;20090;-59
2022/09/29 03:16:36;;;;;;;6.15;4.05;;;9.80;72.20;;;;;;5107537;28;20034;-59
2022/09/29 03:19:04;;;;;;;8.23;4.07;;;9.80;72.30;;;;;;5086103;28;20032;-60
2022/09/29 03:21:30;;;;;;;7.72;4.50;;;9.80;73.00;;;;;;5107962;28;20047;-59
2022/09/29 03:23:56;;;;;;;5.80;4.03;;;9.80;72.40;;;;;;5087830;28;20059;-60
2022/09/29 03:26:22;;;;;;;4.82;3.83;;;9.90;72.40;;;;;;5107591;28;20420;-60
2022/09/29 03:28:52;;;;;;;6.25;3.80;;;9.90;72.50;;;;;;5087474;28;20036;-59
2022/09/29 03:31:18;;;;;;;4.88;3.40;;;9.90;72.50;;;;;;5106554;28;20042;-60
2022/09/29 03:33:44;;;;;;;4.70;3.70;;;9.90;72.40;;;;;;5087220;28;20040;-61
2022/09/29 03:36:10;;;;;;;5.15;3.95;;;9.90;72.40;;;;;;5107381;28;20024;-59
2022/09/29 03:38:37;;;;;;;5.18;3.50;;;9.90;72.50;;;;;;5096712;28;20031;-60
2022/09/29 03:41:04;;;;;;;7.35;4.55;;;9.90;72.60;;;;;;5087998;28;20033;-60
2022/09/29 03:43:29;;;;;;;8.18;5.22;;;9.90;72.60;;;;;;5098287;28;20028;-61
2022/09/29 03:45:57;;;;;;;11.32;6.05;;;9.90;72.50;;;;;;5107175;28;20032;-59
2022/09/29 03:48:23;;;;;;;8.57;5.78;;;10.00;72.70;;;;;;5092395;28;20407;-61
2022/09/29 03:50:53;;;;;;;8.60;5.53;;;10.00;72.70;;;;;;5092373;28;20048;-60
2022/09/29 03:53:19;;;;;;;10.85;5.78;;;9.90;72.70;;;;;;5100152;28;20032;-60
2022/09/29 03:55:49;;;;;;;11.90;5.68;;;10.00;72.80;;;;;;5105524;28;20103;-60
2022/09/29 03:58:16;;;;;;;8.23;5.13;;;10.00;72.90;;;;;;5092495;28;20036;-61
2022/09/29 04:00:42;;;;;;;12.73;5.25;;;10.00;72.60;;;;;;5103435;28;20024;-60
2022/09/29 04:03:07;;;;;;;10.07;4.72;;;10.00;72.60;;;;;;5097107;28;20021;-61
2022/09/29 04:05:37;;;;;;;8.40;4.53;;;10.00;72.80;;;;;;5105592;28;20024;-61
2022/09/29 04:08:06;;;;;;;13.07;6.20;;;10.00;72.90;;;;;;5089998;28;20028;-58
2022/09/29 04:10:36;;;;;;;10.23;5.70;;;10.00;73.00;;;;;;5091069;28;20032;-59
2022/09/29 04:13:02;;;;;;;12.05;6.97;;;10.10;73.90;;;;;;5102097;28;20088;-60
2022/09/29 04:15:28;;;;;;;14.63;7.75;;;10.00;73.10;;;;;;5106505;28;20034;-60
2022/09/29 04:17:54;;;;;;;11.70;7.22;;;10.00;73.20;;;;;;5088783;28;20040;-59
2022/09/29 04:20:20;;;;;;;12.98;6.28;;;10.10;73.40;;;;;;5107442;28;20047;-60
2022/09/29 04:22:47;;;;;;;11.93;6.05;;;10.20;73.50;;;;;;5086515;28;20048;-60
2022/09/29 04:25:13;;;;;;;13.57;6.30;;;10.20;73.50;;;;;;5106774;28;20023;-60
2022/09/29 04:27:39;;;;;;;12.30;6.40;;;10.20;73.40;;;;;;5086051;28;20031;-59
2022/09/29 04:30:06;;;;;;;15.18;5.85;;;10.20;73.50;;;;;;5106214;28;20036;-59
2022/09/29 04:32:32;;;;;;;16.33;6.40;;;10.20;73.30;;;;;;5087302;28;20035;-59
2022/09/29 04:34:58;;;;;;;18.10;7.10;;;10.20;73.40;;;;;;5084844;28;20028;-59
2022/09/29 04:37:23;;;;;;;14.55;6.93;;;10.20;73.50;;;;;;5089268;28;20096;-60
2022/09/29 04:39:51;;;;;;;13.85;7.15;;;10.20;73.60;;;;;;5086945;28;20063;-59
2022/09/29 04:42:17;;;;;;;13.93;7.00;;;10.20;73.60;;;;;;5088411;28;20032;-60
2022/09/29 04:44:43;;;;;;;14.70;7.07;;;10.20;73.50;;;;;;5105299;28;20031;-60
2022/09/29 04:47:09;;;;;;;17.27;7.10;;;10.20;73.50;;;;;;5086814;28;20032;-59
2022/09/29 04:49:34;;;;;;;23.48;7.95;;;10.30;73.50;;;;;;5091811;28;20082;-59
2022/09/29 04:52:01;;;;;;;12.52;7.03;;;10.30;73.60;;;;;;5106601;28;20035;-59
2022/09/29 04:54:34;;;;;;;17.65;7.35;;;10.30;73.70;;;;;;5085513;28;20092;-61
2022/09/29 04:57:00;;;;;;;12.48;7.32;;;10.30;73.90;;;;;;5105679;28;20109;-61
2022/09/29 04:59:29;;;;;;;16.55;8.52;;;10.30;73.70;;;;;;5085766;28;20028;-59
2022/09/29 05:01:54;;;;;;;17.35;8.50;;;10.30;73.90;;;;;;5106197;28;20036;-60
2022/09/29 05:04:20;;;;;;;16.15;8.07;;;10.30;73.80;;;;;;5085748;28;20037;-59
2022/09/29 05:06:46;;;;;;;14.25;8.68;;;10.30;73.90;;;;;;5086476;28;20031;-59
2022/09/29 05:09:12;;;;;;;14.60;8.77;;;10.30;73.90;;;;;;5087330;28;20482;-59
2022/09/29 05:11:37;;;;;;;19.02;8.43;;;10.30;73.90;;;;;;5085855;28;20032;-60
2022/09/29 05:14:04;;;;;;;16.95;8.93;;;10.30;74.00;;;;;;5104364;28;20031;-58
2022/09/29 05:16:30;;;;;;;16.50;8.48;;;10.40;74.00;;;;;;5086359;28;20029;-59
2022/09/29 05:18:56;;;;;;;18.75;8.88;;;10.40;74.00;;;;;;5095547;28;20551;-58
2022/09/29 05:21:22;;;;;;;16.75;8.98;;;10.40;74.00;;;;;;5095493;28;20058;-60
2022/09/29 05:23:47;;;;;;;16.58;9.82;;;10.40;74.00;;;;;;5096636;28;20024;-60
2022/09/29 05:26:13;;;;;;;15.35;9.18;;;10.40;74.10;;;;;;5105161;28;20036;-59
2022/09/29 05:28:45;;;;;;;18.02;9.45;;;10.40;74.10;;;;;;5085419;28;20039;-60
2022/09/29 05:31:11;;;;;;;20.33;10.07;;;10.50;74.30;;;;;;5081184;28;20089;-59
2022/09/29 05:33:37;;;;;;;21.20;10.20;;;10.50;74.30;;;;;;5103881;28;20032;-60
2022/09/29 05:36:08;;;;;;;20.05;10.32;;;10.50;73.90;;;;;;5104814;28;20055;-59
2022/09/29 05:38:37;;;;;;;24.35;10.38;;;10.50;74.00;;;;;;5090723;28;20420;-61
2022/09/29 05:41:11;;;;;;;23.50;11.82;;;10.50;73.90;;;;;;5105715;28;20028;-59
2022/09/29 05:43:38;;;;;;;24.45;10.70;;;10.50;73.90;;;;;;5070686;28;20035;-59
2022/09/29 05:46:06;;;;;;;18.25;9.82;;;10.50;73.80;;;;;;5105429;28;20031;-60
2022/09/29 05:48:32;;;;;;;19.05;10.50;;;10.50;74.00;;;;;;5087773;28;20020;-59
2022/09/29 05:51:08;;;;;;;18.35;11.38;;;10.40;74.00;;;;;;5090177;28;20052;-59
2022/09/29 05:53:34;;;;;;;25.48;15.18;;;10.40;74.40;;;;;;5075209;28;20012;-59
2022/09/29 05:56:07;;;;;;;21.38;12.52;;;10.40;74.20;;;;;;5105837;28;20020;-58
2022/09/29 05:58:33;;;;;;;14.13;9.40;;;10.40;74.60;;;;;;5079825;28;20020;-58
2022/09/29 06:01:03;;;;;;;13.63;8.98;;;10.50;74.30;;;;;;5106024;28;20471;-58
2022/09/29 06:03:29;;;;;;;15.35;8.82;;;10.50;74.30;;;;;;5083226;28;20036;-58
2022/09/29 06:05:54;;;;;;;15.55;9.02;;;10.50;74.30;;;;;;5085459;28;20025;-59
2022/09/29 06:08:20;;;;;;;13.25;8.10;;;10.50;74.00;;;;;;5103993;28;20028;-61
2022/09/29 06:10:46;;;;;;;13.38;8.88;;;10.50;74.10;;;;;;5102143;28;20040;-59
2022/09/29 06:13:11;;;;;;;16.30;9.27;;;10.40;74.00;;;;;;5106536;28;20032;-60
2022/09/29 06:15:37;;;;;;;13.65;8.48;;;10.40;74.20;;;;;;5109063;28;20032;-60
2022/09/29 06:18:03;;;;;;;13.82;8.35;;;10.50;74.30;;;;;;5089009;28;20041;-59
2022/09/29 06:20:29;;;;;;;12.88;8.23;;;10.50;74.30;;;;;;5109734;28;20063;-59
2022/09/29 06:22:55;;;;;;;12.38;8.32;;;10.50;74.30;;;;;;5089563;28;20033;-59
2022/09/29 06:25:22;;;;;;;12.57;8.77;;;10.50;74.50;;;;;;5106372;28;20050;-60
2022/09/29 06:27:48;;;;;;;11.68;8.05;;;10.50;74.40;;;;;;5089509;28;20040;-59
2022/09/29 06:30:14;;;;;;;16.48;9.57;;;10.60;74.40;;;;;;5088251;28;20048;-59
2022/09/29 06:32:40;;;;;;;13.75;8.93;;;10.60;74.40;;;;;;5108523;28;20059;-60
2022/09/29 06:37:54;;;;;;;14.98;8.73;;;10.60;74.30;;;;;;5073370;28;20082;-59
2022/09/29 06:40:22;;;;;;;17.00;9.90;;;10.70;74.40;;;;;;5098110;28;20016;-59
2022/09/29 06:42:48;;;;;;;16.58;9.55;;;10.70;74.50;;;;;;5108626;28;20028;-59
2022/09/29 06:45:14;;;;;;;18.02;10.07;;;10.70;74.60;;;;;;5088338;28;20024;-59
2022/09/29 06:47:40;;;;;;;17.80;10.25;;;10.80;74.50;;;;;;5107024;28;20039;-59
2022/09/29 06:50:08;;;;;;;19.55;11.07;;;10.80;74.50;;;;;;5094941;28;20062;-59
2022/09/29 06:52:34;;;;;;;16.58;10.07;;;10.80;74.50;;;;;;5088759;28;20031;-59
2022/09/29 06:55:01;;;;;;;23.20;11.52;;;10.90;74.50;;;;;;5090142;28;20093;-61
2022/09/29 06:57:27;;;;;;;18.48;10.52;;;10.90;74.50;;;;;;5108393;28;20020;-59
2022/09/29 06:59:53;;;;;;;17.17;10.23;;;10.90;74.50;;;;;;5087950;28;20107;-60
2022/09/29 07:02:18;;;;;;;17.15;9.68;;;11.00;74.60;;;;;;5108274;28;20036;-60
2022/09/29 07:04:44;;;;;;;16.50;10.23;;;11.00;74.30;;;;;;5088145;28;20470;-60
2022/09/29 07:07:10;;;;;;;17.15;11.02;;;11.10;74.40;;;;;;5107672;28;20093;-60
2022/09/29 07:09:36;;;;;;;16.83;9.88;;;11.10;74.30;;;;;;5088158;28;20048;-60
2022/09/29 07:12:02;;;;;;;17.83;10.38;;;11.20;74.30;;;;;;5106535;28;21103;-59
2022/09/29 07:14:28;;;;;;;20.13;10.70;;;11.20;74.20;;;;;;5096804;28;20044;-61
2022/09/29 07:16:53;;;;;;;21.20;11.98;;;11.20;74.00;;;;;;5107739;28;20061;-59
2022/09/29 07:19:19;;;;;;;18.55;12.18;;;11.30;74.00;;;;;;5087705;28;20052;-61
2022/09/29 07:21:46;;;;;;;17.63;11.68;;;11.30;74.10;;;;;;5107530;28;20521;-59
2022/09/29 07:24:12;;;;;;;18.45;11.52;;;11.30;74.00;;;;;;5087474;28;20040;-60
2022/09/29 07:26:37;;;;;;;17.08;10.50;;;11.40;73.90;;;;;;5106301;28;20032;-60
2022/09/29 07:29:03;;;;;;;14.35;10.45;;;11.40;73.70;;;;;;5093185;28;20056;-60
2022/09/29 07:31:29;;;;;;;13.48;9.43;;;11.40;73.80;;;;;;5108504;28;20054;-61
2022/09/29 07:33:56;;;;;;;14.60;9.68;;;11.50;73.90;;;;;;5087047;28;20035;-59
2022/09/29 07:36:22;;;;;;;13.43;10.35;;;11.50;73.80;;;;;;5087425;28;20024;-61
2022/09/29 07:38:49;;;;;;;17.50;10.98;;;11.60;73.70;;;;;;5101856;28;20032;-60
2022/09/29 07:41:17;;;;;;;14.07;9.88;;;11.60;73.60;;;;;;5100007;28;20043;-61
2022/09/29 07:43:42;;;;;;;12.70;9.63;;;11.60;73.60;;;;;;5103019;28;20104;-59
2022/09/29 07:46:09;;;;;;;11.80;9.23;;;11.60;73.50;;;;;;5107106;28;20031;-61
2022/09/29 07:48:36;;;;;;;11.38;8.85;;;11.70;73.50;;;;;;5088192;28;20049;-59
2022/09/29 07:51:08;;;;;;;10.70;7.85;;;11.70;73.50;;;;;;5102636;28;20472;-60
2022/09/29 07:53:35;;;;;;;12.40;8.15;;;11.80;73.30;;;;;;5074492;28;20027;-60
2022/09/29 07:56:19;;;;;;;9.55;7.65;;;11.80;73.10;;;;;;5107220;28;20035;-60
2022/09/29 07:58:46;;;;;;;11.13;7.75;;;11.90;73.10;;;;;;5069665;28;20028;-60
2022/09/29 08:01:13;;;;;;;9.70;7.88;;;12.00;73.00;;;;;;5087423;28;20025;-59
2022/09/29 08:03:41;;;;;;;11.45;8.27;;;12.00;73.10;;;;;;5102859;28;20028;-59
2022/09/29 08:06:07;;;;;;;11.23;8.30;;;12.10;73.20;;;;;;5102664;28;20078;-60
2022/09/29 08:08:42;;;;;;;9.43;7.78;;;12.20;73.10;;;;;;5105745;28;20040;-59
2022/09/29 08:11:08;;;;;;;;;;;12.30;72.90;;;;;;5107924;28;20028;-60
2022/09/29 08:13:35;;;;;;;10.05;7.43;;;12.40;72.90;;;;;;5087783;28;19908;-59
2022/09/29 08:16:02;;;;;;;10.35;8.02;;;12.40;72.40;;;;;;5098130;28;20032;-60
2022/09/29 08:18:29;;;;;;;12.02;8.60;;;12.50;72.40;;;;;;5087302;28;20032;-59
2022/09/29 08:20:55;;;;;;;11.43;8.27;;;12.50;72.40;;;;;;5106277;28;20035;-60
2022/09/29 08:23:22;;;;;;;11.18;8.65;;;12.50;72.50;;;;;;5087079;28;20039;-59
2022/09/29 08:25:49;;;;;;;13.23;8.55;;;12.60;72.50;;;;;;5086081;28;20023;-60
2022/09/29 08:28:16;;;;;;;12.73;8.70;;;12.60;72.30;;;;;;5086704;28;20522;-60
2022/09/29 08:30:42;;;;;;;13.20;8.23;;;12.70;71.80;;;;;;5086403;28;20032;-61
2022/09/29 08:33:13;;;;;;;11.52;8.45;;;12.80;71.40;;;;;;5106317;28;20044;-59
2022/09/29 08:35:40;;;;;;;12.40;8.10;;;12.90;71.20;;;;;;5082966;28;20043;-60
2022/09/29 08:38:05;;;;;;;10.90;8.15;;;12.90;71.30;;;;;;5106276;28;20043;-61
2022/09/29 08:40:32;;;;;;;11.95;8.43;;;13.00;71.30;;;;;;5086258;28;20075;-60
2022/09/29 08:43:30;;;;;;;14.98;8.93;;;13.00;71.10;;;;;;5087971;28;20040;-60
2022/09/29 08:45:59;;;;;;;10.68;7.82;;;13.10;71.00;;;;;;5066641;28;20534;-59
2022/09/29 08:48:29;;;;;;;13.13;8.90;;;13.20;70.90;;;;;;5106754;28;20106;-60
2022/09/29 08:51:02;;;;;;;12.93;9.05;;;13.30;71.00;;;;;;5094487;28;20057;-59
2022/09/29 08:53:31;;;;;;;13.57;9.40;;;13.40;70.70;;;;;;5073793;28;20056;-59
2022/09/29 08:56:04;;;;;;;15.55;10.63;;;13.40;70.30;;;;;;5112854;28;20034;-59
2022/09/29 08:58:31;;;;;;;14.05;9.00;;;13.50;69.80;;;;;;5091395;28;20024;-60
2022/09/29 09:01:30;;;;;;;11.57;8.75;;;13.50;69.20;;;;;;5109417;28;20028;-60
2022/09/29 09:04:15;;;;;;;13.48;9.07;;;13.50;68.70;;;;;;5071805;28;20049;-59
2022/09/29 09:07:01;;;;;;;17.65;9.43;;;13.50;69.10;;;;;;5066558;28;20083;-60
2022/09/29 09:09:45;;;;;;;14.43;9.75;;;13.50;69.10;;;;;;5079635;28;20387;-59
2022/09/29 09:12:39;;;;;;;14.02;9.32;;;13.50;69.30;;;;;;5107060;28;20032;-60
2022/09/29 09:15:20;;;;;;;12.73;9.23;;;13.50;69.00;;;;;;5076562;28;20078;-60
2022/09/29 09:17:55;;;;;;;14.52;9.77;;;13.50;68.70;;;;;;5105534;28;20118;-60
2022/09/29 09:20:31;;;;;;;16.13;9.82;;;13.50;69.10;;;;;;5083834;28;20036;-60
2022/09/29 09:23:18;;;;;;;13.82;9.40;;;13.50;69.10;;;;;;5105609;28;20028;-60
2022/09/29 09:26:02;;;;;;;13.80;9.60;;;13.50;69.30;;;;;;5082395;28;20033;-59
2022/09/29 09:28:51;;;;;;;11.60;9.00;;;13.60;69.30;;;;;;5105981;28;20024;-60
2022/09/29 09:31:52;;;;;;;15.50;9.05;;;13.60;69.20;;;;;;5106074;28;20046;-60
2022/09/29 09:34:27;;;;;;;12.55;9.05;;;13.60;69.20;;;;;;5069699;28;20021;-59
2022/09/29 09:37:09;;;;;;;17.88;8.98;;;13.70;69.00;;;;;;5082549;28;20037;-59
2022/09/29 09:39:42;;;;;;;9.73;7.32;;;13.70;68.90;;;;;;5079346;28;20101;-60
2022/09/29 09:42:22;;;;;;;10.90;7.93;;;13.70;69.30;;;;;;5106171;28;20016;-61
2022/09/29 09:45:05;;;;;;;12.55;7.70;;;13.80;69.30;;;;;;5074043;28;20031;-60
2022/09/29 09:47:41;;;;;;;14.25;8.85;;;13.80;68.90;;;;;;5068867;28;20027;-60
2022/09/29 09:50:14;;;;;;;12.90;8.27;;;13.90;68.60;;;;;;5087472;28;20050;-59
2022/09/29 09:52:56;;;;;;;13.32;8.60;;;13.90;68.30;;;;;;5069785;28;20048;-60
2022/09/29 09:55:27;;;;;;;10.57;8.18;;;13.90;67.90;;;;;;5093944;28;20031;-60
2022/09/29 09:58:13;;;;;;;11.88;8.20;;;13.90;68.10;;;;;;5069872;28;20025;-62
2022/09/29 10:00:45;;;;;;;14.60;9.18;;;13.90;67.90;;;;;;5084225;28;20044;-60
2022/09/29 10:03:13;;;;;;;11.10;8.75;;;13.90;67.70;;;;;;5069460;28;20060;-62
2022/09/29 10:05:41;;;;;;;10.52;7.55;;;13.90;67.80;;;;;;5092427;28;20036;-60
2022/09/29 10:08:23;;;;;;;12.68;8.40;;;13.90;67.70;;;;;;5109615;28;20101;-60
2022/09/29 10:10:49;;;;;;;11.70;7.82;;;13.90;67.70;;;;;;5085342;28;20082;-60
2022/09/29 10:13:16;;;;;;;10.85;7.65;;;13.90;67.80;;;;;;5090958;28;20036;-60
2022/09/29 10:16:12;;;;;;;10.57;8.07;;;13.90;67.80;;;;;;5092233;28;20063;-61
2022/09/29 10:18:45;;;;;;;12.32;7.63;;;13.90;67.90;;;;;;5108892;28;20024;-60
2022/09/29 10:21:32;;;;;;;9.35;6.88;;;13.90;68.10;;;;;;5087156;28;20101;-60
2022/09/29 10:24:00;;;;;;;8.52;6.45;;;13.90;67.70;;;;;;5069338;28;20037;-60
2022/09/29 10:26:42;;;;;;;9.60;6.53;;;14.00;67.80;;;;;;5108947;28;20031;-59
2022/09/29 10:29:30;;;;;;;8.23;6.20;;;14.00;67.60;;;;;;5052233;28;20052;-61
2022/09/29 10:32:11;;;;;;;8.40;6.07;;;14.10;67.50;;;;;;5088723;28;20044;-61
2022/09/29 10:34:40;;;;;;;6.90;5.65;;;14.20;67.70;;;;;;5080154;28;20028;-60
2022/09/29 10:37:40;;;;;;;10.18;6.85;;;14.30;68.10;;;;;;5107979;28;20028;-60
2022/09/29 10:40:11;;;;;;;9.20;6.07;;;14.50;66.80;;;;;;5077397;28;20071;-62
2022/09/29 10:42:39;;;;;;;7.78;5.63;;;14.60;67.20;;;;;;5108773;28;20057;-61
2022/09/29 10:45:21;;;;;;;8.77;5.55;;;14.70;66.80;;;;;;5086561;28;20033;-63
2022/09/29 10:48:12;;;;;;;9.38;4.75;;;14.80;65.80;;;;;;5068816;28;20460;-60
2022/09/29 10:50:51;;;;;;;6.93;4.65;;;14.80;65.70;;;;;;5086883;28;20102;-61
2022/09/29 10:53:38;;;;;;;5.63;4.22;;;14.90;65.20;;;;;;5108703;28;20039;-60
2022/09/29 10:56:28;;;;;;;4.05;3.60;;;15.00;64.70;;;;;;5085374;28;20036;-62
2022/09/29 10:58:57;;;;;;;5.53;4.43;;;15.10;64.20;;;;;;5067163;28;20040;-61
2022/09/29 11:01:25;;;;;;;6.38;4.35;;;15.10;64.90;;;;;;5108375;28;20028;-60
2022/09/29 11:04:05;;;;;;;5.53;4.22;;;15.20;64.70;;;;;;5087428;28;20028;-60
2022/09/29 11:06:32;;;;;;;7.38;4.85;;;15.30;64.20;;;;;;5068590;28;20036;-61
2022/09/29 11:09:24;;;;;;;10.35;6.57;;;15.40;65.10;;;;;;5107808;28;20035;-59
2022/09/29 11:11:55;;;;;;;7.43;4.55;;;15.50;64.70;;;;;;5068153;28;20407;-60
2022/09/29 11:14:40;;;;;;;5.28;3.92;;;15.60;64.90;;;;;;5104174;28;20033;-60
2022/09/29 11:17:29;;;;;;;5.57;3.58;;;15.80;64.00;;;;;;5068212;28;20033;-60
2022/09/29 11:20:01;;;;;;;4.38;3.38;;;15.90;62.30;;;;;;5106417;28;20023;-61
2022/09/29 11:22:47;;;;;;;4.13;3.10;;;16.00;63.10;;;;;;5102489;28;20024;-60
2022/09/29 11:25:17;;;;;;;4.43;2.75;;;16.10;61.80;;;;;;5085895;28;20450;-60
2022/09/29 11:27:55;;;;;;;5.10;3.28;;;16.20;62.50;;;;;;5088380;28;20038;-60
2022/09/29 11:30:24;;;;;;;10.70;3.70;;;16.30;62.70;;;;;;5084649;28;20037;-60
2022/09/29 11:33:13;;;;;;;4.05;3.13;;;16.40;62.30;;;;;;5108007;28;20043;-61
2022/09/29 11:35:52;;;;;;;6.18;3.20;;;16.40;61.90;;;;;;5093052;28;20032;-61
2022/09/29 11:38:47;;;;;;;4.30;3.15;;;16.50;62.00;;;;;;5068005;28;20499;-59
2022/09/29 11:41:28;;;;;;;4.70;3.47;;;16.50;61.60;;;;;;5106892;28;20032;-62
2022/09/29 11:44:06;;;;;;;6.53;3.20;;;16.60;61.80;;;;;;5067757;28;20025;-61
2022/09/29 11:46:50;;;;;;;4.80;3.78;;;16.70;61.90;;;;;;5087766;28;20091;-59
2022/09/29 11:49:37;;;;;;;6.55;3.47;;;16.80;61.80;;;;;;5085126;28;20027;-60
2022/09/29 11:52:21;;;;;;;5.53;3.80;;;16.90;61.80;;;;;;5108006;28;20038;-60
2022/09/29 11:55:09;;;;;;;9.57;2.97;;;17.00;61.00;;;;;;5072075;28;20054;-63
2022/09/29 11:58:00;;;;;;;7.13;2.97;;;17.10;61.50;;;;;;5079424;28;20059;-60
2022/09/29 12:00:37;;;;;;;5.30;2.78;;;17.10;60.10;;;;;;5077259;28;20398;-60
2022/09/29 12:03:43;;;;;;;5.07;2.85;;;17.20;60.30;;;;;;5107268;28;20032;-59
2022/09/29 12:06:30;;;;;;;9.57;4.82;;;17.30;59.40;;;;;;5066553;28;20041;-60
2022/09/29 12:09:12;;;;;;;7.78;3.15;;;17.30;59.20;;;;;;5066494;28;20033;-59
2022/09/29 12:11:40;;;;;;;5.57;3.35;;;17.30;59.40;;;;;;5067101;28;20571;-60
2022/09/29 12:14:33;;;;;;;6.38;3.38;;;17.40;59.30;;;;;;5105909;28;20028;-62
2022/09/29 12:17:07;;;;;;;4.20;2.58;;;17.50;58.70;;;;;;5067247;28;20029;-59
2022/09/29 12:19:38;;;;;;;3.17;1.80;;;17.60;59.60;;;;;;5071389;28;20349;-60
2022/09/29 12:22:09;;;;;;;3.28;1.98;;;17.70;59.30;;;;;;5107447;28;20028;-62
2022/09/29 12:24:36;;;;;;;2.70;2.25;;;17.80;58.20;;;;;;5068938;28;20067;-60
2022/09/29 12:27:10;;;;;;;1.95;1.70;;;17.80;57.90;;;;;;5106418;28;20508;-60
2022/09/29 12:29:45;;;;;;;2.75;1.95;;;17.80;57.30;;;;;;5068758;28;20055;-60
2022/09/29 12:32:35;;;;;;;4.57;2.35;;;17.80;57.50;;;;;;5072885;28;20036;-60
2022/09/29 12:35:30;;;;;;;4.95;1.88;;;17.80;57.00;;;;;;5071974;28;20035;-60
2022/09/29 12:38:21;;;;;;;2.08;1.30;;;17.90;56.70;;;;;;5066687;28;20147;-60
2022/09/29 12:41:02;;;;;;;2.25;1.50;;;17.90;57.00;;;;;;5081389;28;20378;-60
2022/09/29 12:43:54;;;;;;;1.95;1.30;;;17.90;57.40;;;;;;5066617;28;20087;-60
2022/09/29 12:46:37;;;;;;;3.30;1.48;;;18.00;56.40;;;;;;5081049;28;20040;-61
2022/09/29 12:49:24;;;;;;;3.00;1.65;;;18.00;57.00;;;;;;5081823;28;20099;-61
2022/09/29 12:51:52;;;;;;;3.58;1.40;;;18.10;56.40;;;;;;5066398;28;20032;-61
2022/09/29 12:54:24;;;;;;;3.65;1.40;;;18.10;57.10;;;;;;5105825;28;20028;-59
2022/09/29 12:56:58;;;;;;;1.85;1.50;;;18.10;56.50;;;;;;5105102;28;20030;-61
2022/09/29 12:59:55;;;;;;;2.40;1.50;;;18.10;56.10;;;;;;5085397;28;20039;-60
2022/09/29 13:02:28;;;;;;;3.95;1.50;;;18.10;55.90;;;;;;5066312;28;20040;-61
2022/09/29 13:05:32;;;;;;;4.90;2.00;;;18.10;56.10;;;;;;5104554;28;20077;-62
2022/09/29 13:08:10;;;;;;;2.13;1.50;;;18.00;55.60;;;;;;5086698;28;20063;-61
2022/09/29 13:10:42;;;;;;;7.22;1.80;;;18.00;55.90;;;;;;5084901;28;20103;-60
2022/09/29 13:13:25;;;;;;;2.75;1.55;;;17.90;55.80;;;;;;5070584;28;20037;-60
2022/09/29 13:16:15;;;;;;;2.83;1.73;;;17.80;55.10;;;;;;5070356;28;20537;-59